Time;durP1;ratioP1;P1;durP2;ratioP2;P2;SDS_P1;SDS_P2;PMS_P1;PMS_P2;Temp;Humidity;BMP_temperature;BMP_pressure;BME280_temperature;BME280_humidity;BME280_pressure;Samples;Min_cycle;Max_cycle;Signal;HPM_P1;HPM_P2
2022/11/21 00:02:45;;;;;;;3.80;3.35;;;;;;;19.82;47.63;95779.16;10377796;28;20061;-56
2022/11/21 00:08:04;;;;;;;3.20;2.80;;;;;;;19.82;47.69;95773.75;10383703;28;20049;-56
2022/11/21 00:13:23;;;;;;;3.17;2.88;;;;;;;19.79;47.88;95769.03;10418404;28;20049;-56
2022/11/21 00:18:43;;;;;;;3.28;2.97;;;;;;;19.78;47.77;95762.09;10385945;28;20080;-56
2022/11/21 00:24:03;;;;;;;3.65;3.10;;;;;;;19.77;47.63;95760.50;10376860;28;20104;-56
2022/11/21 00:29:22;;;;;;;3.15;2.90;;;;;;;19.75;47.61;95746.56;10376838;28;20061;-56
2022/11/21 00:34:41;;;;;;;3.33;3.00;;;;;;;19.72;47.62;95744.56;10389526;28;20046;-56
2022/11/21 00:40:01;;;;;;;3.88;2.65;;;;;;;19.72;47.57;95744.56;10376207;28;20061;-56
2022/11/21 00:45:21;;;;;;;3.22;2.92;;;;;;;19.71;47.66;95742.97;10388631;28;20049;-56
2022/11/21 00:50:40;;;;;;;3.20;2.90;;;;;;;19.68;47.67;95733.66;10375444;28;20104;-56
2022/11/21 00:55:59;;;;;;;3.00;2.70;;;;;;;19.66;47.56;95722.41;10384427;28;20065;-56
2022/11/21 01:01:18;;;;;;;3.30;2.92;;;;;;;19.65;47.65;95711.94;10375280;28;20061;-56
2022/11/21 01:06:38;;;;;;;3.38;2.85;;;;;;;19.65;47.65;95706.53;10375077;28;20053;-56
2022/11/21 01:11:57;;;;;;;2.92;2.58;;;;;;;19.63;47.67;95700.72;10400502;28;20061;-56
2022/11/21 01:17:17;;;;;;;2.67;2.47;;;;;;;19.62;47.74;95688.31;10387923;28;20045;-56
2022/11/21 01:22:36;;;;;;;3.30;3.00;;;;;;;19.60;47.77;95693.28;10374810;28;20421;-56
2022/11/21 01:27:55;;;;;;;3.05;2.72;;;;;;;19.58;47.83;95677.44;10387481;28;20126;-56
2022/11/21 01:33:15;;;;;;;14.13;2.80;;;;;;;19.56;47.91;95679.69;10374286;28;20065;-56
2022/11/21 01:38:34;;;;;;;2.67;2.47;;;;;;;19.54;47.87;95677.38;10374026;28;20050;-56
2022/11/21 01:43:54;;;;;;;3.22;2.65;;;;;;;19.53;47.92;95669.59;10374251;28;20061;-56
2022/11/21 01:49:20;;;;;;;3.53;2.40;;;;;;;19.51;47.95;95653.75;10374002;28;20120;-56
2022/11/21 01:55:03;;;;;;;5.10;2.47;;;;;;;19.49;47.90;95653.31;10373663;28;20054;-56
2022/11/21 02:00:26;;;;;;;2.88;2.58;;;;;;;19.49;47.89;95655.25;10373632;28;20054;-56
2022/11/21 02:05:46;;;;;;;3.95;2.60;;;;;;;19.46;48.03;95647.84;10373427;28;20050;-56
2022/11/21 02:11:08;;;;;;;2.75;2.42;;;;;;;19.45;48.01;95647.06;10399098;28;20053;-56
2022/11/21 02:16:28;;;;;;;2.70;2.30;;;;;;;19.44;47.96;95640.06;10413297;28;20095;-56
2022/11/21 02:22:01;;;;;;;2.47;2.08;;;;;;;19.43;47.93;95637.75;10399410;28;20057;-56
2022/11/21 02:27:20;;;;;;;2.20;2.00;;;;;;;19.41;48.06;95640.00;10412292;28;20064;-56
2022/11/21 02:32:46;;;;;;;2.50;2.30;;;;;;;19.40;48.05;95643.84;10412433;28;20104;-56
2022/11/21 02:38:15;;;;;;;2.60;2.40;;;;;;;19.37;48.09;95629.13;10413926;28;20100;-56
2022/11/21 02:43:38;;;;;;;2.55;2.35;;;;;;;19.35;48.05;95636.78;10413738;28;20107;-56
2022/11/21 02:48:58;;;;;;;2.33;2.10;;;;;;;19.35;48.04;95620.59;10412542;28;20076;-56
2022/11/21 02:54:17;;;;;;;2.40;2.20;;;;;;;19.32;48.06;95615.88;10413757;28;20065;-56
2022/11/21 02:59:36;;;;;;;2.33;2.13;;;;;;;19.31;47.90;95615.09;10413602;28;20405;-56
2022/11/21 03:04:56;;;;;;;2.30;2.10;;;;;;;19.29;47.86;95606.56;10401792;28;20378;-56
2022/11/21 03:10:15;;;;;;;2.08;1.98;;;;;;;19.29;48.13;95611.19;10390953;28;20508;-56
2022/11/21 03:15:35;;;;;;;2.67;2.47;;;;;;;19.27;47.90;95602.66;10418115;28;20079;-56
2022/11/21 03:20:54;;;;;;;2.40;2.20;;;;;;;19.27;48.01;95605.38;10420516;28;20053;-54
2022/11/21 03:26:13;;;;;;;3.45;2.10;;;;;;;19.26;47.93;95595.69;10419309;28;20053;-56
2022/11/21 03:31:32;;;;;;;2.47;2.17;;;;;;;19.24;48.04;95587.94;10433408;28;20406;-56
2022/11/21 03:36:52;;;;;;;2.13;1.92;;;;;;;19.23;47.87;95590.97;10432861;28;20099;-56
2022/11/21 03:42:11;;;;;;;2.30;2.10;;;;;;;19.22;47.93;95584.03;10419752;28;20389;-56
2022/11/21 03:47:31;;;;;;;2.03;1.90;;;;;;;19.20;47.91;95567.41;10419323;28;20056;-56
2022/11/21 03:52:51;;;;;;;2.17;1.92;;;;;;;19.19;47.96;95568.50;10432583;28;20056;-56
2022/11/21 03:58:10;;;;;;;2.38;1.92;;;;;;;19.15;48.03;95555.72;10418557;28;20061;-56
2022/11/21 04:03:31;;;;;;;2.40;2.10;;;;;;;19.16;47.99;95543.78;10388255;28;20061;-56
2022/11/21 04:08:50;;;;;;;2.00;1.90;;;;;;;19.15;47.97;95542.25;10398413;28;20051;-56
2022/11/21 04:14:09;;;;;;;1.70;1.60;;;;;;;19.12;48.03;95531.34;10418072;28;20065;-56
2022/11/21 04:19:29;;;;;;;2.33;1.80;;;;;;;19.11;47.95;95544.06;10418438;28;20057;-56
2022/11/21 04:24:48;;;;;;;1.90;1.75;;;;;;;19.10;48.20;95545.19;10417461;28;20049;-56
2022/11/21 04:30:08;;;;;;;2.22;1.80;;;;;;;19.10;47.99;95539.03;10417950;28;20053;-56
2022/11/21 04:35:27;;;;;;;1.70;1.60;;;;;;;19.06;48.00;95533.53;10430847;28;20052;-56
2022/11/21 04:40:47;;;;;;;2.05;1.85;;;;;;;19.05;48.07;95526.59;10417488;28;20068;-56
2022/11/21 04:46:06;;;;;;;1.77;1.60;;;;;;;19.04;48.13;95514.22;10417235;28;20057;-56
2022/11/21 04:51:26;;;;;;;1.98;1.75;;;;;;;19.03;48.08;95511.88;10417091;28;20057;-56
2022/11/21 04:56:45;;;;;;;1.80;1.70;;;;;;;19.02;48.02;95510.31;10410045;28;20057;-56
2022/11/21 05:02:04;;;;;;;2.00;1.70;;;;;;;19.01;48.10;95509.50;10375847;28;20141;-56
2022/11/21 05:07:24;;;;;;;1.65;1.55;;;;;;;19.00;48.14;95499.09;10375203;28;20046;-56
2022/11/21 05:18:22;;;;;;;1.67;1.58;;;;;;;18.98;48.37;95490.56;10415360;28;20497;-55
2022/11/21 05:23:42;;;;;;;1.73;1.63;;;;;;;18.97;48.36;95487.06;10415631;28;20064;-56
2022/11/21 05:29:01;;;;;;;1.60;1.50;;;;;;;18.95;48.46;95483.94;10415595;28;20112;-56
2022/11/21 05:34:20;;;;;;;1.60;1.50;;;;;;;18.95;48.41;95500.13;10392069;28;20046;-56
2022/11/21 05:39:39;;;;;;;1.70;1.60;;;;;;;18.93;48.52;95487.00;10413201;28;20053;-56
2022/11/21 05:44:59;;;;;;;1.30;1.20;;;;;;;18.93;48.63;95489.69;10415064;28;20053;-56
2022/11/21 05:50:18;;;;;;;2.10;1.55;;;;;;;18.94;48.58;95476.97;10428079;28;20053;-56
2022/11/21 05:55:37;;;;;;;1.40;1.30;;;;;;;18.94;48.76;95471.59;10386996;28;20129;-57
2022/11/21 06:00:58;;;;;;;2.17;1.30;;;;;;;18.95;48.87;95470.44;10386806;28;20466;-56
2022/11/21 06:06:17;;;;;;;2.42;1.63;;;;;;;18.94;48.88;95480.44;10373568;28;20062;-56
2022/11/21 06:11:36;;;;;;;1.60;1.50;;;;;;;18.95;49.03;95479.34;10382602;28;20107;-55
2022/11/21 06:16:56;;;;;;;4.10;1.35;;;;;;;18.95;49.12;95471.25;10381022;28;20081;-56
2022/11/21 06:22:15;;;;;;;1.45;1.25;;;;;;;18.97;49.02;95481.66;10332201;28;20066;-56
2022/11/21 06:27:34;;;;;;;2.63;1.60;;;;;;;18.97;49.00;95473.56;10331731;28;20050;-56
2022/11/21 06:32:54;;;;;;;2.60;1.75;;;;;;;18.99;49.10;95473.22;10331268;28;20050;-55
2022/11/21 06:38:17;;;;;;;4.07;1.88;;;;;;;19.00;49.12;95467.47;10331974;28;20050;-56
2022/11/21 06:43:37;;;;;;;6.07;2.15;;;;;;;19.01;49.20;95476.34;10332460;28;20062;-56
2022/11/21 06:48:56;;;;;;;5.20;2.10;;;;;;;19.03;49.25;95474.06;10338344;28;20046;-56
2022/11/21 06:54:16;;;;;;;4.40;2.00;;;;;;;19.03;49.32;95474.06;10380669;28;20411;-56
2022/11/21 06:59:35;;;;;;;4.53;2.03;;;;;;;19.05;49.32;95480.69;10380414;28;20058;-56
2022/11/21 07:04:54;;;;;;;7.72;2.20;;;;;;;19.06;49.34;95479.56;10392891;28;20425;-55
2022/11/21 07:10:14;;;;;;;4.38;2.15;;;;;;;19.07;49.22;95485.72;10399058;28;20107;-57
2022/11/21 07:15:34;;;;;;;3.72;2.22;;;;;;;19.08;49.03;95484.59;10420712;28;20072;-56
2022/11/21 07:20:58;;;;;;;7.80;2.38;;;;;;;19.09;49.22;95495.06;10420667;28;20061;-56
2022/11/21 07:26:17;;;;;;;4.55;2.30;;;;;;;19.11;49.07;95498.19;10419766;28;20046;-56
2022/11/21 07:31:37;;;;;;;4.72;2.28;;;;;;;19.12;49.14;95497.03;10433435;28;20080;-56
2022/11/21 07:36:56;;;;;;;4.35;1.90;;;;;;;19.16;48.95;95499.81;10419918;28;20057;-56
2022/11/21 07:42:16;;;;;;;3.50;1.65;;;;;;;19.16;49.07;95491.72;10419233;28;20504;-56
2022/11/21 07:47:36;;;;;;;5.22;2.03;;;;;;;19.19;49.24;95492.91;10395920;28;20512;-56
2022/11/21 07:52:57;;;;;;;4.05;2.15;;;;;;;19.22;49.27;95492.22;10378361;28;20127;-56
2022/11/21 07:58:16;;;;;;;4.80;2.30;;;;;;;19.22;49.10;95497.63;10377514;28;20095;-57
2022/11/21 08:03:36;;;;;;;6.00;2.40;;;;;;;19.26;48.31;95498.47;10377408;28;20065;-56
2022/11/21 08:08:55;;;;;;;5.32;2.40;;;;;;;19.26;48.54;95493.84;10386080;28;20053;-56
2022/11/21 08:14:15;;;;;;;4.30;2.03;;;;;;;19.28;48.37;95490.81;10418575;28;20057;-56
2022/11/21 08:19:34;;;;;;;4.85;2.22;;;;;;;19.30;48.24;95499.34;10417625;28;20084;-56
2022/11/21 08:24:54;;;;;;;4.20;2.10;;;;;;;19.31;48.43;95500.91;10418115;28;20049;-56
2022/11/21 08:30:13;;;;;;;3.33;2.05;;;;;;;19.32;48.23;95511.34;10431160;28;20046;-56
2022/11/21 08:35:36;;;;;;;3.85;2.28;;;;;;;19.33;48.36;95514.84;10431019;28;20049;-56
2022/11/21 08:46:36;;;;;;;4.28;2.40;;;;;;;19.38;48.26;95514.56;10376615;28;20054;-56
2022/11/21 08:51:55;;;;;;;3.92;2.13;;;;;;;19.40;48.12;95519.59;10376231;28;20061;-56
2022/11/21 08:57:15;;;;;;;3.97;2.03;;;;;;;19.42;48.15;95520.03;10375296;28;20509;-56
2022/11/21 09:02:35;;;;;;;4.68;2.53;;;;;;;19.43;48.19;95527.00;10388629;28;20544;-56
2022/11/21 09:07:56;;;;;;;4.90;2.55;;;;;;;19.45;48.23;95522.81;10375378;28;20052;-56
2022/11/21 09:13:15;;;;;;;5.70;2.33;;;;;;;19.45;48.27;95539.03;10415334;28;20057;-56
2022/11/21 09:18:34;;;;;;;2.47;2.00;;;;;;;19.49;48.30;95541.78;10429232;28;20052;-57
2022/11/21 09:23:54;;;;;;;3.63;2.03;;;;;;;19.50;48.20;95551.44;10415796;28;20057;-54
2022/11/21 09:29:16;;;;;;;3.78;2.35;;;;;;;19.51;48.34;95548.41;10428617;28;20045;-56
2022/11/21 09:34:35;;;;;;;3.40;2.08;;;;;;;19.53;48.29;95554.22;10415319;28;20053;-56
2022/11/21 09:39:55;;;;;;;3.22;2.15;;;;;;;19.55;48.26;95553.88;10393807;28;20064;-56
2022/11/21 09:45:19;;;;;;;3.47;2.45;;;;;;;19.55;48.26;95554.66;10374390;28;20050;-56
2022/11/21 09:50:41;;;;;;;3.58;2.20;;;;;;;19.58;48.26;95552.38;10387162;28;20038;-56
2022/11/21 09:56:11;;;;;;;3.55;2.00;;;;;;;19.59;48.24;95553.97;10382463;28;20054;-56
2022/11/21 10:01:30;;;;;;;2.78;2.17;;;;;;;19.61;48.14;95578.72;10358844;28;20053;-56
2022/11/21 10:07:05;;;;;;;4.28;2.15;;;;;;;19.62;48.14;95572.16;10386759;28;20374;-56
2022/11/21 10:12:47;;;;;;;4.25;2.10;;;;;;;19.63;48.07;95577.22;10408611;28;20165;-56
2022/11/21 10:18:07;;;;;;;3.08;1.92;;;;;;;19.67;48.13;95580.00;10412686;28;20049;-56
2022/11/21 10:23:51;;;;;;;3.30;1.67;;;;;;;19.67;48.26;95590.78;10416283;28;20053;-55
2022/11/21 10:29:19;;;;;;;2.60;1.90;;;;;;;19.69;47.98;95581.19;10435471;28;20044;-56
2022/11/21 10:34:39;;;;;;;2.13;1.53;;;;;;;19.71;47.31;95589.75;10398223;28;20053;-56
2022/11/21 10:40:09;;;;;;;3.17;1.60;;;;;;;19.73;47.34;95589.41;10366489;28;20057;-56
2022/11/21 10:45:29;;;;;;;2.65;1.60;;;;;;;19.73;47.40;95584.00;10365926;28;20045;-56
2022/11/21 10:51:33;;;;;;;1.50;1.40;;;;;;;19.72;47.31;95585.16;10380771;28;20054;-56
2022/11/21 10:56:54;;;;;;;1.95;1.55;;;;;;;19.75;47.41;95608.75;10370212;28;20394;-56
2022/11/21 11:02:13;;;;;;;2.03;1.45;;;;;;;19.77;47.50;95603.00;10380270;28;20061;-57
2022/11/21 11:07:32;;;;;;;2.05;1.50;;;;;;;19.77;47.39;95609.19;10393000;28;20042;-56
2022/11/21 11:18:32;;;;;;;1.58;1.30;;;;;;;19.80;47.24;95610.38;10420743;28;20053;-56
2022/11/21 11:23:53;;;;;;;2.35;1.50;;;;;;;19.82;47.34;95610.84;10420584;28;20393;-56
2022/11/21 11:29:16;;;;;;;2.60;1.63;;;;;;;19.82;47.48;95611.59;10433354;28;20042;-56
2022/11/21 11:34:38;;;;;;;1.95;1.48;;;;;;;19.83;47.34;95607.75;10379205;28;20057;-56
2022/11/21 11:40:19;;;;;;;2.90;1.90;;;;;;;19.84;47.27;95609.34;10378682;28;20068;-54
2022/11/21 11:51:38;;;;;;;2.25;1.55;;;;;;;19.88;47.25;95628.34;10378630;28;20062;-56
2022/11/21 11:56:58;;;;;;;2.13;1.35;;;;;;;19.90;47.35;95618.72;10377634;28;20116;-56
2022/11/21 12:02:25;;;;;;;2.35;1.50;;;;;;;19.89;47.42;95627.94;10377958;28;20049;-56
2022/11/21 12:08:00;;;;;;;1.92;1.20;;;;;;;19.91;47.41;95614.88;10376765;28;20100;-56
2022/11/21 12:13:19;;;;;;;1.40;1.10;;;;;;;19.93;47.44;95617.22;10336857;28;20085;-56
2022/11/21 12:18:50;;;;;;;1.42;1.17;;;;;;;19.94;46.34;95619.56;10334913;28;20046;-56
2022/11/21 12:24:11;;;;;;;2.08;1.40;;;;;;;19.97;46.66;95617.28;10348307;28;20046;-56
2022/11/21 12:29:48;;;;;;;2.65;1.30;;;;;;;19.97;46.85;95614.59;10364005;28;20054;-56
2022/11/21 12:35:52;;;;;;;2.10;1.25;;;;;;;19.97;46.90;95612.66;10376432;28;20046;-56
2022/11/21 12:47:15;;;;;;;1.42;1.10;;;;;;;20.00;46.95;95627.41;10351458;28;20081;-56
2022/11/21 12:58:38;;;;;;;1.83;1.10;;;;;;;20.03;46.88;95618.56;10375190;28;20054;-56
2022/11/21 13:04:01;;;;;;;1.35;1.05;;;;;;;20.04;47.08;95617.44;10374860;28;20129;-56
2022/11/21 13:09:22;;;;;;;2.47;1.23;;;;;;;20.05;47.20;95611.69;10385265;28;20041;-56
2022/11/21 13:14:56;;;;;;;1.63;1.27;;;;;;;20.05;47.21;95617.09;10429052;28;20076;-56
2022/11/21 13:20:33;;;;;;;1.63;1.17;;;;;;;20.06;47.31;95626.00;10415335;28;20053;-56
2022/11/21 13:25:52;;;;;;;1.30;1.10;;;;;;;20.07;47.28;95628.34;10384628;28;20050;-56
2022/11/21 13:31:29;;;;;;;1.42;1.20;;;;;;;20.10;47.36;95616.03;10373940;28;20132;-56
2022/11/21 13:36:49;;;;;;;2.40;1.20;;;;;;;20.11;47.38;95622.97;10374327;28;20054;-56
2022/11/21 13:47:50;;;;;;;;;;;;;;;20.13;47.31;95628.81;10373826;28;20529;-56
2022/11/21 13:53:30;;;;;;;1.27;1.02;;;;;;;20.14;47.53;95638.50;10372032;28;19921;-56
2022/11/21 13:59:01;;;;;;;2.03;1.13;;;;;;;20.15;47.48;95640.88;10372342;28;20053;-56
2022/11/21 14:04:43;;;;;;;1.63;1.20;;;;;;;20.16;47.63;95636.22;10373414;28;20073;-56
2022/11/21 14:10:05;;;;;;;1.17;1.05;;;;;;;20.16;47.59;95636.22;10390824;28;20451;-56
2022/11/21 14:15:31;;;;;;;1.67;1.08;;;;;;;20.18;47.53;95642.06;10414032;28;20062;-57
2022/11/21 14:20:56;;;;;;;1.40;1.10;;;;;;;20.19;47.49;95646.34;10394221;28;20528;-56
2022/11/21 14:26:19;;;;;;;1.80;1.20;;;;;;;20.21;47.55;95635.97;10371295;28;20049;-55
2022/11/21 14:31:46;;;;;;;1.35;1.08;;;;;;;20.22;47.59;95623.97;10371434;28;20496;-56
2022/11/21 14:37:06;;;;;;;1.20;1.00;;;;;;;20.23;47.58;95628.28;10373007;28;20057;-56
2022/11/21 14:42:33;;;;;;;1.65;1.27;;;;;;;20.24;47.48;95626.34;10385869;28;20038;-56
2022/11/21 14:47:53;;;;;;;2.30;1.27;;;;;;;20.25;47.47;95628.69;10385650;28;20104;-56
2022/11/21 14:53:12;;;;;;;1.52;1.10;;;;;;;20.25;47.54;95634.09;10385572;28;20050;-56
2022/11/21 14:58:33;;;;;;;1.55;1.10;;;;;;;20.27;47.41;95621.00;10357085;28;20065;-56
2022/11/21 15:03:55;;;;;;;1.65;1.10;;;;;;;20.26;47.54;95608.59;10371778;28;20079;-56
2022/11/21 15:09:15;;;;;;;1.80;1.20;;;;;;;20.27;47.48;95599.38;10392898;28;20046;-56
2022/11/21 15:14:48;;;;;;;1.48;1.10;;;;;;;20.30;47.19;95609.44;10433891;28;20045;-55
2022/11/21 15:20:10;;;;;;;0.80;0.80;;;;;;;20.30;47.21;95616.78;10338933;28;20065;-57
2022/11/21 15:25:43;;;;;;;1.00;0.90;;;;;;;20.31;47.02;95611.03;10338588;28;20058;-56
2022/11/21 15:31:20;;;;;;;1.30;1.10;;;;;;;20.33;47.32;95607.97;10338522;28;20065;-56
2022/11/21 15:36:39;;;;;;;1.20;1.10;;;;;;;20.34;47.31;95612.22;10337711;28;20054;-57
2022/11/21 15:42:32;;;;;;;1.38;1.20;;;;;;;20.34;47.47;95604.91;10351070;28;20405;-57
2022/11/21 15:47:52;;;;;;;2.78;1.27;;;;;;;20.35;47.35;95595.66;10337618;28;20058;-57
2022/11/21 15:53:18;;;;;;;30.90;9.27;;;;;;;20.36;46.95;95596.44;10336976;28;20057;-57
2022/11/21 15:58:37;;;;;;;15.13;6.50;;;;;;;20.37;46.90;95589.13;10338977;28;20063;-57
2022/11/21 16:04:00;;;;;;;28.23;12.13;;;;;;;20.39;47.15;95595.72;10349986;28;20560;-56
2022/11/21 16:09:19;;;;;;;17.92;8.02;;;;;;;20.40;48.68;95599.19;10365081;28;20049;-55
2022/11/21 16:14:39;;;;;;;18.80;6.97;;;;;;;20.41;48.91;95582.63;10388592;28;20053;-57
2022/11/21 16:19:58;;;;;;;17.55;6.75;;;;;;;20.42;49.30;95584.16;10376500;28;20441;-57
2022/11/21 16:25:17;;;;;;;17.85;5.85;;;;;;;20.43;49.63;95585.75;10378048;28;20054;-56
2022/11/21 16:30:37;;;;;;;16.35;6.00;;;;;;;20.45;50.13;95593.50;10408699;28;20057;-56
2022/11/21 16:35:57;;;;;;;14.25;5.47;;;;;;;20.45;49.83;95578.06;10430494;28;20050;-56
2022/11/21 16:41:18;;;;;;;13.40;5.35;;;;;;;20.46;49.80;95587.72;10417213;28;20402;-56
2022/11/21 16:46:41;;;;;;;12.38;5.40;;;;;;;20.46;49.78;95576.13;10416939;28;20057;-57
2022/11/21 16:52:02;;;;;;;10.38;4.65;;;;;;;20.47;49.88;95572.28;10429357;28;20057;-56
2022/11/21 16:57:22;;;;;;;10.80;4.43;;;;;;;20.48;49.81;95566.53;10415674;28;20054;-57
2022/11/21 17:02:41;;;;;;;11.10;4.30;;;;;;;20.50;49.93;95563.44;10410690;28;20508;-56
2022/11/21 17:08:00;;;;;;;10.57;4.28;;;;;;;20.51;49.84;95565.00;10410796;28;20046;-55
2022/11/21 17:13:20;;;;;;;14.35;4.90;;;;;;;20.52;50.05;95553.03;10429217;28;20486;-57
2022/11/21 17:18:40;;;;;;;8.55;4.38;;;;;;;20.51;50.18;95554.97;10429032;28;20139;-57
2022/11/21 17:23:59;;;;;;;12.88;3.97;;;;;;;20.52;50.35;95553.84;10408528;28;20052;-57
2022/11/21 17:29:19;;;;;;;11.07;3.85;;;;;;;20.54;50.73;95548.03;10370869;28;20042;-55
2022/11/21 17:34:38;;;;;;;9.10;4.28;;;;;;;20.53;50.83;95551.91;10383529;28;20042;-56
2022/11/21 17:39:57;;;;;;;7.45;3.95;;;;;;;20.53;50.94;95558.09;10370458;28;20099;-56
2022/11/21 17:45:17;;;;;;;9.85;4.13;;;;;;;20.54;51.55;95561.56;10371084;28;20054;-57
2022/11/21 17:50:37;;;;;;;8.63;4.20;;;;;;;20.53;51.59;95562.72;10372100;28;21247;-57
2022/11/21 17:55:58;;;;;;;10.50;4.05;;;;;;;20.53;51.35;95562.72;10372322;28;20054;-57
2022/11/21 18:01:18;;;;;;;9.07;3.97;;;;;;;20.54;51.48;95569.69;10382651;28;20038;-57
2022/11/21 18:06:38;;;;;;;9.82;4.13;;;;;;;20.52;51.81;95563.84;10370094;28;20096;-57
2022/11/21 18:11:58;;;;;;;8.07;3.72;;;;;;;20.52;51.57;95566.56;10397387;28;20405;-58
2022/11/21 18:17:17;;;;;;;9.57;3.85;;;;;;;20.50;51.36;95556.13;10372996;28;20053;-57
2022/11/21 18:22:36;;;;;;;9.57;4.22;;;;;;;20.49;51.46;95546.44;10373223;28;20054;-57
2022/11/21 18:27:56;;;;;;;8.05;3.40;;;;;;;20.48;51.24;95552.19;10408362;28;20500;-57
2022/11/21 18:33:15;;;;;;;5.18;3.10;;;;;;;20.48;51.10;95554.91;10395642;28;20057;-57
2022/11/21 18:38:37;;;;;;;5.88;3.17;;;;;;;20.45;50.88;95545.59;10372712;28;20054;-56
2022/11/21 18:43:58;;;;;;;6.18;3.40;;;;;;;20.44;50.61;95530.50;10374327;28;20409;-55
2022/11/21 18:49:18;;;;;;;6.40;3.22;;;;;;;20.43;50.54;95503.81;10380579;28;20050;-55
2022/11/21 18:54:38;;;;;;;8.65;3.50;;;;;;;20.42;50.32;95504.94;10380306;28;20058;-56
2022/11/21 18:59:58;;;;;;;7.40;3.13;;;;;;;20.41;50.20;95479.06;10392955;28;20046;-56
2022/11/21 19:05:17;;;;;;;6.38;3.60;;;;;;;20.42;50.36;95469.78;10379274;28;20057;-55
2022/11/21 19:10:37;;;;;;;6.93;3.60;;;;;;;20.41;50.36;95468.25;10415225;28;20045;-56
2022/11/21 19:15:59;;;;;;;7.90;3.50;;;;;;;20.40;50.36;95434.97;10433671;28;20049;-56
2022/11/21 19:21:19;;;;;;;6.88;3.40;;;;;;;20.38;50.76;95425.66;10433777;28;20045;-55
2022/11/21 19:26:39;;;;;;;6.35;3.13;;;;;;;20.38;50.44;95441.91;10420223;28;20053;-55
2022/11/21 19:31:59;;;;;;;7.40;3.40;;;;;;;20.38;50.62;95442.69;10433163;28;20041;-53
2022/11/21 19:37:18;;;;;;;9.45;3.28;;;;;;;20.37;50.65;95437.66;10419819;28;20119;-56
2022/11/21 19:42:38;;;;;;;6.28;3.05;;;;;;;20.35;50.63;95432.59;10432820;28;20393;-55
2022/11/21 19:47:57;;;;;;;5.93;3.20;;;;;;;20.33;50.67;95418.66;10419316;28;20053;-55
2022/11/21 19:53:17;;;;;;;6.90;3.17;;;;;;;20.33;50.62;95427.53;10418524;28;20060;-56
2022/11/21 19:58:36;;;;;;;5.95;3.22;;;;;;;20.31;50.65;95437.94;10396117;28;20058;-56
2022/11/21 20:03:58;;;;;;;7.75;3.22;;;;;;;20.30;50.58;95441.78;10377127;28;20564;-56
2022/11/21 20:09:20;;;;;;;7.05;3.10;;;;;;;20.29;50.61;95429.41;10374020;28;20053;-56
2022/11/21 20:14:40;;;;;;;5.10;2.83;;;;;;;20.27;50.56;95439.81;10418257;28;20057;-55
2022/11/21 20:19:59;;;;;;;7.10;3.30;;;;;;;20.27;50.89;95431.69;10418017;28;20103;-56
2022/11/21 20:25:18;;;;;;;5.15;3.13;;;;;;;20.25;50.54;95420.47;10411054;28;20050;-55
2022/11/21 20:30:38;;;;;;;4.32;2.80;;;;;;;20.24;50.58;95429.69;10414399;28;20424;-56
2022/11/21 20:36:02;;;;;;;6.20;3.10;;;;;;;20.23;50.82;95425.44;10416906;28;20049;-56
2022/11/21 20:41:27;;;;;;;5.70;3.03;;;;;;;20.22;50.55;95431.22;10417344;28;20045;-56
2022/11/21 20:46:47;;;;;;;5.10;2.70;;;;;;;20.21;50.38;95427.75;10416917;28;20053;-57
2022/11/21 20:52:06;;;;;;;5.55;2.80;;;;;;;20.18;50.36;95423.03;10416315;28;20123;-56
2022/11/21 20:57:29;;;;;;;4.78;3.08;;;;;;;20.17;50.63;95437.72;10372467;28;20464;-56
2022/11/21 21:02:48;;;;;;;3.97;2.92;;;;;;;20.14;50.50;95431.09;10388485;28;20038;-56
2022/11/21 21:08:08;;;;;;;5.50;2.72;;;;;;;20.12;50.53;95419.09;10376349;28;20497;-57
2022/11/21 21:13:27;;;;;;;3.42;2.60;;;;;;;20.10;50.42;95405.91;10416021;28;20080;-57
2022/11/21 21:18:47;;;;;;;4.13;2.80;;;;;;;20.09;50.34;95403.56;10415918;28;20053;-56
2022/11/21 21:24:09;;;;;;;5.05;2.60;;;;;;;20.07;50.24;95397.75;10415741;28;20060;-56
2022/11/21 21:29:29;;;;;;;4.15;2.80;;;;;;;20.06;50.19;95401.59;10415455;28;20076;-56
2022/11/21 21:34:48;;;;;;;5.00;3.05;;;;;;;20.06;50.19;95388.09;10415042;28;20049;-56
2022/11/21 21:40:09;;;;;;;4.78;2.70;;;;;;;20.03;50.17;95392.31;10379871;28;20062;-56
2022/11/21 21:45:28;;;;;;;4.60;2.70;;;;;;;20.02;50.20;95393.44;10386965;28;20477;-56
2022/11/21 21:50:48;;;;;;;3.47;2.53;;;;;;;20.01;50.33;95391.09;10373722;28;20061;-56
2022/11/21 21:56:07;;;;;;;4.65;2.97;;;;;;;20.00;50.37;95394.94;10372511;28;20750;-56
2022/11/21 22:01:29;;;;;;;5.93;3.00;;;;;;;19.98;50.20;95384.47;10373206;28;20137;-57
2022/11/21 22:06:48;;;;;;;4.93;2.97;;;;;;;19.96;50.24;95389.47;10373283;28;20050;-54
2022/11/21 22:12:08;;;;;;;4.65;2.83;;;;;;;19.96;50.27;95394.88;10420823;28;20038;-56
2022/11/21 22:17:28;;;;;;;3.78;2.90;;;;;;;19.94;50.59;95389.81;10413006;28;20057;-56
2022/11/21 22:22:47;;;;;;;6.25;3.35;;;;;;;19.92;50.51;95378.59;10426923;28;20052;-57
2022/11/21 22:28:06;;;;;;;4.82;3.03;;;;;;;19.91;50.44;95377.03;10409838;28;20060;-56
2022/11/21 22:33:26;;;;;;;4.28;2.90;;;;;;;19.90;50.50;95366.59;10413447;28;20051;-57
2022/11/21 22:38:45;;;;;;;4.10;3.00;;;;;;;19.88;50.47;95345.31;10397055;28;20038;-57
2022/11/21 22:44:05;;;;;;;4.10;2.67;;;;;;;19.85;50.50;95335.22;10370947;28;20061;-57
2022/11/21 22:49:25;;;;;;;5.28;2.88;;;;;;;19.86;50.43;95331.41;10370382;28;20042;-56
2022/11/21 22:54:44;;;;;;;5.43;3.00;;;;;;;19.84;50.39;95322.88;10382370;28;20034;-57
2022/11/21 23:00:05;;;;;;;4.50;2.80;;;;;;;19.82;50.33;95313.56;10368896;28;20502;-57
2022/11/21 23:05:25;;;;;;;5.10;3.03;;;;;;;19.79;50.28;95315.06;10369556;28;20050;-56
2022/11/21 23:10:44;;;;;;;5.10;3.00;;;;;;;19.80;50.27;95313.13;10370008;28;20489;-57
2022/11/21 23:16:05;;;;;;;4.00;2.95;;;;;;;19.77;50.33;95300.34;10371786;28;20490;-57
2022/11/21 23:21:24;;;;;;;4.80;3.10;;;;;;;19.76;50.33;95299.59;10372255;28;20057;-56
2022/11/21 23:26:44;;;;;;;4.60;2.90;;;;;;;19.75;50.26;95293.38;10387820;28;20397;-57
2022/11/21 23:32:03;;;;;;;3.97;2.70;;;;;;;19.73;50.22;95290.25;10402096;28;20060;-57
2022/11/21 23:37:23;;;;;;;4.18;2.75;;;;;;;19.71;50.28;95283.63;10338699;28;20046;-57
2022/11/21 23:42:45;;;;;;;4.70;2.75;;;;;;;19.70;50.23;95265.88;10351899;28;20057;-57
2022/11/21 23:48:04;;;;;;;4.25;2.55;;;;;;;19.69;50.28;95248.09;10410057;28;20109;-57
2022/11/21 23:53:24;;;;;;;4.22;2.60;;;;;;;19.68;50.24;95244.63;10432957;28;20382;-57
2022/11/21 23:58:43;;;;;;;3.72;2.58;;;;;;;19.66;50.23;95232.59;10418860;28;20500;-57
